createdAt,value
2022-07-28T00:00:35.933Z,35.17
2022-07-28T00:03:04.566Z,39.92
2022-07-28T00:05:34.483Z,42.78
2022-07-28T00:08:02.837Z,43.95
2022-07-28T00:10:32.488Z,38.33
2022-07-28T00:13:00.975Z,38.53
2022-07-28T00:15:29.679Z,47.67
2022-07-28T00:17:57.984Z,40.22
2022-07-28T00:20:26.846Z,37.40
2022-07-28T00:22:56.451Z,41.55
2022-07-28T00:25:25.327Z,37.42
2022-07-28T00:27:53.559Z,36.90
2022-07-28T00:30:21.976Z,43.05
2022-07-28T00:32:50.530Z,38.80
2022-07-28T00:35:30.266Z,42.47
2022-07-28T00:38:01.499Z,38.85
2022-07-28T00:40:43.623Z,40.08
2022-07-28T00:43:11.977Z,40.33
2022-07-28T00:45:40.172Z,44.22
2022-07-28T00:48:08.449Z,37.35
2022-07-28T00:50:36.877Z,40.78
2022-07-28T00:53:07.485Z,37.95
2022-07-28T00:56:03.499Z,40.30
2022-07-28T00:58:27.550Z,36.25
2022-07-28T01:00:55.959Z,42.20
2022-07-28T01:03:24.411Z,37.80
2022-07-28T01:06:04.551Z,40.72
2022-07-28T01:08:42.027Z,36.35
2022-07-28T01:11:15.203Z,38.45
2022-07-28T01:13:51.201Z,38.35
2022-07-28T01:16:23.583Z,42.45
2022-07-28T01:18:57.692Z,40.97
2022-07-28T01:21:28.399Z,40.63
2022-07-28T01:24:09.626Z,41.17
2022-07-28T01:26:50.230Z,44.15
2022-07-28T01:29:28.310Z,44.72
2022-07-28T01:32:01.751Z,40.13
2022-07-28T01:34:33.705Z,38.15
2022-07-28T01:37:05.878Z,45.05
2022-07-28T01:39:36.380Z,38.00
2022-07-28T01:42:07.336Z,35.88
2022-07-28T01:44:39.775Z,39.00
2022-07-28T01:47:09.831Z,35.67
2022-07-28T01:49:38.662Z,34.15
2022-07-28T01:52:09.315Z,38.70
2022-07-28T01:54:40.232Z,44.08
2022-07-28T01:57:14.774Z,39.22
2022-07-28T01:59:43.549Z,36.97
2022-07-28T02:02:14.547Z,39.20
2022-07-28T02:04:44.476Z,36.75
2022-07-28T02:07:14.034Z,47.45
2022-07-28T02:09:43.829Z,49.80
2022-07-28T02:12:12.944Z,46.70
2022-07-28T02:14:41.928Z,48.67
2022-07-28T02:17:14.805Z,52.15
2022-07-28T02:19:44.120Z,44.90
2022-07-28T02:22:12.868Z,46.17
2022-07-28T02:24:42.244Z,46.33
2022-07-28T02:27:14.149Z,44.03
2022-07-28T02:29:52.271Z,43.50
2022-07-28T02:32:27.179Z,45.13
2022-07-28T02:35:01.956Z,37.00
2022-07-28T02:37:36.419Z,44.50
2022-07-28T02:42:35.179Z,40.85
2022-07-28T02:45:10.063Z,46.95
2022-07-28T02:47:46.824Z,40.60
2022-07-28T02:50:16.488Z,40.85
2022-07-28T02:52:45.334Z,41.80
2022-07-28T02:55:16.431Z,44.33
2022-07-28T02:57:50.889Z,49.58
2022-07-28T03:00:22.006Z,43.42
2022-07-28T03:02:52.085Z,43.72
2022-07-28T03:05:22.220Z,39.40
2022-07-28T03:07:52.898Z,38.47
2022-07-28T03:10:34.142Z,41.05
2022-07-28T03:13:04.356Z,44.50
2022-07-28T03:15:33.342Z,41.88
2022-07-28T03:18:04.555Z,36.78
2022-07-28T03:20:33.023Z,42.28
2022-07-28T03:23:02.350Z,37.55
2022-07-28T03:25:36.058Z,42.55
2022-07-28T03:28:07.887Z,37.10
2022-07-28T03:30:40.627Z,40.60
2022-07-28T03:33:10.558Z,35.00
2022-07-28T03:35:40.437Z,39.92
2022-07-28T03:38:11.615Z,35.42
2022-07-28T03:40:40.530Z,36.58
2022-07-28T03:43:15.979Z,33.58
2022-07-28T03:45:46.758Z,34.75
2022-07-28T03:48:17.175Z,34.72
2022-07-28T03:50:45.679Z,38.42
2022-07-28T03:53:21.820Z,79.65
2022-07-28T03:55:51.850Z,35.17
2022-07-28T03:58:20.400Z,37.78
2022-07-28T04:00:49.611Z,35.05
2022-07-28T04:03:35.693Z,31.15
2022-07-28T04:06:08.464Z,33.95
2022-07-28T04:08:36.661Z,34.10
2022-07-28T04:11:04.873Z,30.85
2022-07-28T04:13:33.347Z,29.55
2022-07-28T04:16:01.958Z,33.50
2022-07-28T04:18:31.669Z,32.15
2022-07-28T04:21:00.011Z,26.15
2022-07-28T04:23:28.369Z,29.83
2022-07-28T04:25:56.639Z,27.60
2022-07-28T04:28:25.570Z,25.90
2022-07-28T04:30:53.860Z,29.13
2022-07-28T04:33:24.943Z,27.80
2022-07-28T04:35:54.680Z,25.38
2022-07-28T04:38:22.863Z,24.77
2022-07-28T04:40:51.341Z,29.75
2022-07-28T04:43:19.757Z,23.90
2022-07-28T04:45:54.595Z,25.52
2022-07-28T04:48:24.088Z,24.02
2022-07-28T04:50:53.345Z,25.65
2022-07-28T04:53:24.391Z,21.08
2022-07-28T04:55:53.361Z,24.60
2022-07-28T04:58:23.222Z,27.38
2022-07-28T05:00:52.779Z,26.42
2022-07-28T05:03:21.704Z,23.83
2022-07-28T05:05:54.280Z,25.65
2022-07-28T05:10:55.786Z,23.73
2022-07-28T05:13:24.068Z,27.67
2022-07-28T05:15:52.459Z,25.13
2022-07-28T05:18:20.657Z,24.52
2022-07-28T05:20:48.892Z,24.70
2022-07-28T05:23:17.836Z,21.45
2022-07-28T05:25:47.767Z,26.65
2022-07-28T05:28:15.969Z,28.77
2022-07-28T05:30:45.619Z,37.63
2022-07-28T05:33:16.373Z,23.15
2022-07-28T05:35:45.859Z,22.40
2022-07-28T05:38:14.600Z,26.58
2022-07-28T05:40:42.860Z,24.20
2022-07-28T05:43:12.514Z,20.67
2022-07-28T05:45:40.802Z,25.85
2022-07-28T05:48:09.198Z,23.45
2022-07-28T05:50:39.985Z,22.70
2022-07-28T05:53:08.167Z,21.98
2022-07-28T05:55:36.367Z,22.55
2022-07-28T05:58:26.088Z,19.30
2022-07-28T06:00:54.701Z,18.80
2022-07-28T06:03:23.276Z,21.17
2022-07-28T06:05:59.490Z,24.77
2022-07-28T06:08:39.779Z,23.35
2022-07-28T06:11:11.772Z,21.65
2022-07-28T06:13:42.595Z,21.83
2022-07-28T06:16:13.305Z,21.55
2022-07-28T06:18:44.132Z,20.63
2022-07-28T06:21:14.353Z,20.08
2022-07-28T06:23:42.628Z,19.60
2022-07-28T06:26:10.956Z,18.95
2022-07-28T06:28:39.544Z,18.25
2022-07-28T06:31:09.213Z,18.00
2022-07-28T06:33:38.230Z,18.95
2022-07-28T06:36:06.820Z,18.20
2022-07-28T06:38:35.064Z,18.85
2022-07-28T06:41:03.360Z,23.73
2022-07-28T06:43:34.182Z,18.17
2022-07-28T06:46:05.039Z,17.38
2022-07-28T06:48:37.694Z,17.73
2022-07-28T06:53:34.841Z,18.27
2022-07-28T06:56:04.587Z,19.08
2022-07-28T06:58:34.357Z,18.75
2022-07-28T07:01:07.761Z,16.80
2022-07-28T07:03:38.094Z,16.67
2022-07-28T07:06:06.388Z,18.48
2022-07-28T07:08:34.722Z,16.85
2022-07-28T07:11:04.186Z,21.23
2022-07-28T07:13:33.293Z,16.70
2022-07-28T07:16:01.928Z,14.20
2022-07-28T07:18:31.637Z,20.60
2022-07-28T07:21:01.355Z,19.52
2022-07-28T07:23:29.711Z,15.40
2022-07-28T07:26:00.994Z,18.63
2022-07-28T07:28:29.252Z,14.85
2022-07-28T07:30:57.646Z,15.65
2022-07-28T07:33:26.517Z,17.10
2022-07-28T07:35:55.216Z,18.38
2022-07-28T07:38:29.031Z,18.33
2022-07-28T07:40:57.883Z,15.35
2022-07-28T07:43:27.673Z,13.88
2022-07-28T07:45:56.604Z,14.82
2022-07-28T07:48:28.096Z,14.30
2022-07-28T07:50:59.470Z,18.30
2022-07-28T07:53:30.420Z,16.98
2022-07-28T07:56:04.743Z,13.35
2022-07-28T07:58:37.189Z,16.38
2022-07-28T08:01:06.359Z,13.95
2022-07-28T08:03:35.914Z,13.85
2022-07-28T08:06:08.343Z,17.02
2022-07-28T08:08:45.154Z,12.82
2022-07-28T08:11:17.566Z,13.43
2022-07-28T08:13:46.676Z,13.50
2022-07-28T08:16:16.227Z,14.32
2022-07-28T08:18:46.412Z,13.55
2022-07-28T08:21:14.803Z,16.58
2022-07-28T08:23:44.502Z,16.15
2022-07-28T08:26:12.886Z,14.10
2022-07-28T08:28:41.159Z,15.40
2022-07-28T08:31:10.720Z,13.10
2022-07-28T08:33:53.709Z,14.90
2022-07-28T08:36:24.009Z,12.35
2022-07-28T08:38:53.773Z,12.00
2022-07-28T08:41:25.883Z,16.27
2022-07-28T08:44:04.122Z,15.02
2022-07-28T08:46:36.306Z,14.45
2022-07-28T08:49:11.183Z,13.82
2022-07-28T08:51:43.544Z,20.25
2022-07-28T08:54:15.988Z,13.55
2022-07-28T08:56:47.859Z,18.27
2022-07-28T08:59:17.014Z,13.45
2022-07-28T09:01:45.436Z,14.48
2022-07-28T09:04:14.034Z,11.60
2022-07-28T09:06:43.683Z,14.35
2022-07-28T09:09:15.523Z,16.63
2022-07-28T09:11:44.026Z,13.52
2022-07-28T09:14:12.643Z,13.20
2022-07-28T09:16:41.142Z,19.77
2022-07-28T09:19:09.475Z,17.40
2022-07-28T09:21:38.007Z,26.58
2022-07-28T09:24:07.055Z,13.65
2022-07-28T09:26:36.795Z,12.75
2022-07-28T09:29:07.694Z,16.00
2022-07-28T09:31:36.073Z,23.13
2022-07-28T09:34:05.947Z,15.50
2022-07-28T09:36:39.450Z,30.90
2022-07-28T09:39:08.327Z,13.10
2022-07-28T09:41:49.572Z,10.15
2022-07-28T09:44:21.596Z,15.52
2022-07-28T09:46:50.069Z,10.38
2022-07-28T09:49:18.654Z,15.07
2022-07-28T09:52:01.237Z,8.98
2022-07-28T09:54:30.390Z,10.95
2022-07-28T09:57:02.316Z,10.38
2022-07-28T09:59:43.602Z,15.40
2022-07-28T10:02:25.591Z,13.23
2022-07-28T10:05:00.744Z,12.48
2022-07-28T10:07:33.926Z,10.80
2022-07-28T10:10:04.524Z,10.25
2022-07-28T10:12:36.771Z,11.93
2022-07-28T10:15:36.387Z,12.40
2022-07-28T10:18:10.818Z,12.30
2022-07-28T10:20:40.173Z,15.20
2022-07-28T10:23:12.091Z,14.10
2022-07-28T10:25:45.494Z,14.70
2022-07-28T10:28:19.404Z,9.73
2022-07-28T10:30:49.129Z,13.07
2022-07-28T10:33:18.174Z,13.57
2022-07-28T10:35:54.861Z,12.93
2022-07-28T10:38:30.045Z,10.55
2022-07-28T10:41:02.823Z,14.20
2022-07-28T10:43:34.783Z,14.88
2022-07-28T10:46:06.943Z,11.93
2022-07-28T10:48:39.514Z,10.90
2022-07-28T10:51:09.057Z,13.65
2022-07-28T10:53:45.316Z,14.20
2022-07-28T10:56:20.021Z,10.50
2022-07-28T10:59:02.790Z,11.57
2022-07-28T11:01:53.097Z,10.18
2022-07-28T11:04:55.684Z,12.48
2022-07-28T11:07:25.034Z,15.98
2022-07-28T11:09:55.314Z,12.85
2022-07-28T11:12:47.453Z,11.20
2022-07-28T11:21:03.150Z,10.27
2022-07-28T11:23:49.346Z,10.82
2022-07-28T11:26:38.835Z,10.75
2022-07-28T11:29:23.979Z,10.50
2022-07-28T11:32:04.801Z,9.57
2022-07-28T11:35:10.823Z,11.93
2022-07-28T11:38:13.873Z,12.15
2022-07-28T11:40:47.794Z,13.25
2022-07-28T11:43:36.312Z,13.63
2022-07-28T11:46:37.509Z,17.73
2022-07-28T11:49:29.192Z,19.30
2022-07-28T11:52:16.587Z,19.27
2022-07-28T11:54:50.834Z,19.08
2022-07-28T11:57:21.808Z,11.50
2022-07-28T11:59:53.673Z,17.85
2022-07-28T12:02:25.190Z,9.68
2022-07-28T12:05:11.749Z,9.90
2022-07-28T12:07:49.290Z,11.20
2022-07-28T12:10:53.205Z,11.50
2022-07-28T12:13:28.126Z,14.85
2022-07-28T12:15:57.347Z,11.38
2022-07-28T12:18:27.127Z,11.63
2022-07-28T12:21:04.982Z,11.23
2022-07-28T12:23:38.974Z,11.43
2022-07-28T12:26:31.374Z,13.90
2022-07-28T12:29:02.696Z,12.10
2022-07-28T12:31:38.347Z,13.13
2022-07-28T12:34:10.015Z,13.30
2022-07-28T12:36:41.188Z,11.63
2022-07-28T12:39:13.144Z,11.65
2022-07-28T12:41:42.695Z,13.20
2022-07-28T12:44:12.998Z,11.30
2022-07-28T12:46:49.256Z,14.35
2022-07-28T12:49:25.712Z,12.93
2022-07-28T12:51:56.466Z,9.98
2022-07-28T12:54:37.082Z,12.80
2022-07-28T12:57:06.906Z,10.60
2022-07-28T12:59:38.695Z,12.65
2022-07-28T13:02:09.973Z,13.15
2022-07-28T13:04:45.248Z,15.65
2022-07-28T13:07:17.223Z,9.45
2022-07-28T13:09:54.788Z,12.07
2022-07-28T13:12:31.344Z,10.70
2022-07-28T13:15:02.523Z,16.40
2022-07-28T13:17:51.506Z,13.45
2022-07-28T13:20:20.637Z,15.13
2022-07-28T13:22:50.281Z,15.13
2022-07-28T13:25:18.556Z,14.02
2022-07-28T13:27:50.923Z,12.88
2022-07-28T13:30:22.674Z,14.27
2022-07-28T13:32:54.887Z,17.05
2022-07-28T13:35:26.261Z,10.48
2022-07-28T13:37:55.830Z,13.23
2022-07-28T13:40:24.240Z,11.90
2022-07-28T13:42:56.773Z,14.25
2022-07-28T13:47:58.474Z,11.10
2022-07-28T13:50:27.179Z,13.40
2022-07-28T13:52:56.929Z,15.05
2022-07-28T13:55:27.209Z,20.10
2022-07-28T13:57:56.555Z,11.23
2022-07-28T14:00:25.441Z,15.30
2022-07-28T14:02:53.810Z,12.15
2022-07-28T14:05:22.370Z,9.80
2022-07-28T14:07:52.892Z,9.40
2022-07-28T14:10:26.649Z,10.88
2022-07-28T14:12:55.978Z,12.48
2022-07-28T14:15:25.588Z,7.35
2022-07-28T14:17:54.467Z,9.23
2022-07-28T14:20:23.260Z,9.07
2022-07-28T14:22:52.143Z,10.25
2022-07-28T14:25:21.810Z,6.85
2022-07-28T14:27:52.403Z,9.80
2022-07-28T14:30:20.840Z,10.55
2022-07-28T14:32:49.136Z,10.95
2022-07-28T14:35:17.875Z,6.28
2022-07-28T14:38:35.169Z,11.77
2022-07-28T14:40:36.869Z,7.10
2022-07-28T14:43:10.322Z,6.45
2022-07-28T14:46:01.632Z,8.05
2022-07-28T14:48:27.257Z,9.65
2022-07-28T14:50:57.285Z,9.63
2022-07-28T14:53:28.094Z,8.82
2022-07-28T14:55:56.673Z,12.85
2022-07-28T14:58:26.355Z,8.65
2022-07-28T15:00:55.952Z,11.40
2022-07-28T15:03:24.253Z,10.52
2022-07-28T15:05:52.621Z,9.90
2022-07-28T15:08:20.815Z,10.60
2022-07-28T15:10:55.332Z,12.80
2022-07-28T15:13:23.547Z,14.60
2022-07-28T15:15:53.176Z,15.38
2022-07-28T15:18:22.755Z,15.98
2022-07-28T15:20:55.410Z,11.02
2022-07-28T15:23:24.586Z,11.75
2022-07-28T15:25:53.313Z,10.40
2022-07-28T15:28:22.167Z,11.25
2022-07-28T15:30:52.806Z,10.00
2022-07-28T15:33:24.183Z,11.77
2022-07-28T15:35:58.532Z,13.85
2022-07-28T15:38:29.502Z,12.65
2022-07-28T15:41:00.243Z,17.60
2022-07-28T15:43:28.596Z,14.02
2022-07-28T15:45:57.674Z,10.90
2022-07-28T15:48:27.907Z,11.48
2022-07-28T15:50:57.164Z,14.25
2022-07-28T15:53:25.423Z,11.60
2022-07-28T15:55:53.761Z,15.98
2022-07-28T15:58:23.101Z,18.50
2022-07-28T16:00:51.863Z,16.13
2022-07-28T16:03:21.833Z,17.02
2022-07-28T16:05:51.898Z,11.82
2022-07-28T16:08:22.874Z,14.93
2022-07-28T16:10:52.888Z,14.40
2022-07-28T16:13:36.327Z,13.77
2022-07-28T16:16:09.822Z,16.25
2022-07-28T16:18:39.239Z,13.27
2022-07-28T16:21:10.085Z,15.05
2022-07-28T16:23:38.572Z,16.77
2022-07-28T16:26:09.315Z,15.57
2022-07-28T16:28:37.882Z,13.80
2022-07-28T16:31:06.539Z,12.68
2022-07-28T16:33:34.857Z,15.98
2022-07-28T16:36:03.647Z,18.63
2022-07-28T16:38:33.241Z,14.43
2022-07-28T16:41:01.428Z,16.65
2022-07-28T16:43:29.844Z,15.05
2022-07-28T16:45:59.791Z,19.73
2022-07-28T16:48:28.008Z,15.38
2022-07-28T16:50:56.790Z,13.68
2022-07-28T16:53:25.191Z,15.18
2022-07-28T16:55:54.897Z,15.85
2022-07-28T16:58:23.257Z,19.95
2022-07-28T17:00:51.833Z,15.95
2022-07-28T17:03:20.116Z,15.55
2022-07-28T17:05:50.556Z,19.90
2022-07-28T17:08:21.232Z,15.90
2022-07-28T17:10:51.141Z,16.17
2022-07-28T17:13:21.499Z,15.50
2022-07-28T17:15:49.791Z,17.15
2022-07-28T17:18:18.453Z,13.85
2022-07-28T17:20:47.379Z,13.18
2022-07-28T17:23:15.788Z,23.27
2022-07-28T17:28:34.144Z,14.68
2022-07-28T17:31:02.586Z,12.77
2022-07-28T17:33:31.420Z,16.95
2022-07-28T17:35:59.779Z,12.02
2022-07-28T17:38:33.024Z,13.82
2022-07-28T17:41:04.026Z,13.82
2022-07-28T17:43:34.137Z,17.35
2022-07-28T17:46:02.979Z,16.02
2022-07-28T17:48:38.532Z,15.00
2022-07-28T17:51:06.962Z,11.75
2022-07-28T17:53:39.116Z,13.27
2022-07-28T17:56:08.753Z,16.98
2022-07-28T17:58:39.234Z,14.50
2022-07-28T18:01:12.219Z,17.08
2022-07-28T18:03:56.713Z,15.88
2022-07-28T18:06:32.909Z,14.25
2022-07-28T18:09:05.260Z,14.07
2022-07-28T18:11:55.514Z,13.68
2022-07-28T18:14:26.217Z,14.88
2022-07-28T18:16:54.513Z,16.45
2022-07-28T18:19:24.027Z,15.98
2022-07-28T18:21:52.261Z,14.35
2022-07-28T18:24:22.611Z,15.45
2022-07-28T18:26:51.747Z,12.57
2022-07-28T18:29:22.372Z,15.98
2022-07-28T18:31:52.764Z,14.18
2022-07-28T18:34:25.278Z,13.95
2022-07-28T18:36:55.551Z,12.43
2022-07-28T18:39:24.012Z,17.85
2022-07-28T18:41:52.674Z,14.13
2022-07-28T18:44:21.410Z,12.40
2022-07-28T18:46:51.834Z,15.98
2022-07-28T18:49:21.682Z,12.73
2022-07-28T18:51:50.027Z,17.20
2022-07-28T18:54:27.222Z,13.40
2022-07-28T18:56:56.421Z,13.10
2022-07-28T18:59:24.989Z,15.02
2022-07-28T19:01:54.634Z,14.48
2022-07-28T19:04:22.924Z,17.55
2022-07-28T19:06:51.460Z,12.50
2022-07-28T19:09:19.775Z,10.85
2022-07-28T19:11:47.992Z,11.38
2022-07-28T19:14:17.129Z,9.20
2022-07-28T19:16:45.707Z,9.70
2022-07-28T19:19:15.657Z,6.43
2022-07-28T19:21:44.614Z,9.45
2022-07-28T19:24:13.861Z,5.22
2022-07-28T19:26:43.111Z,11.30
2022-07-28T19:29:11.687Z,4.70
2022-07-28T19:31:41.561Z,5.93
2022-07-28T19:34:10.216Z,4.53
2022-07-28T19:36:41.874Z,7.43
2022-07-28T19:39:12.312Z,3.92
2022-07-28T19:41:40.730Z,4.68
2022-07-28T19:44:09.707Z,4.93
2022-07-28T19:46:39.431Z,11.25
2022-07-28T19:49:07.991Z,6.28
2022-07-28T19:51:36.467Z,4.28
2022-07-28T19:54:06.614Z,4.63
2022-07-28T19:56:35.039Z,5.53
2022-07-28T19:59:03.444Z,3.70
2022-07-28T20:01:32.037Z,4.55
2022-07-28T20:04:05.017Z,5.25
2022-07-28T20:06:33.855Z,3.88
2022-07-28T20:09:02.545Z,5.47
2022-07-28T20:11:33.080Z,10.10
2022-07-28T20:14:01.893Z,5.00
2022-07-28T20:16:30.572Z,3.83
2022-07-28T20:18:58.901Z,6.30
2022-07-28T20:21:27.438Z,6.55
2022-07-28T20:23:56.390Z,8.32
2022-07-28T20:26:26.054Z,4.47
2022-07-28T20:28:58.622Z,2.95
2022-07-28T20:31:26.982Z,5.25
2022-07-28T20:33:56.596Z,10.27
2022-07-28T20:36:29.428Z,5.85
2022-07-28T20:38:58.073Z,5.85
2022-07-28T20:41:26.424Z,4.88
2022-07-28T20:44:26.075Z,3.25
2022-07-28T20:46:44.395Z,3.00
2022-07-28T20:49:12.639Z,4.47
2022-07-28T20:51:50.697Z,4.25
2022-07-28T20:54:19.839Z,3.95
2022-07-28T20:56:48.074Z,2.75
2022-07-28T20:59:17.930Z,4.40
2022-07-28T21:01:46.326Z,2.47
2022-07-28T21:04:15.052Z,3.88
2022-07-28T21:06:50.825Z,3.85
2022-07-28T21:09:20.744Z,3.50
2022-07-28T21:11:48.966Z,1.52
2022-07-28T21:14:19.705Z,2.63
2022-07-28T21:16:48.568Z,1.60
2022-07-28T21:19:16.851Z,3.08
2022-07-28T21:21:45.067Z,5.35
2022-07-28T21:24:13.646Z,8.65
2022-07-28T21:26:42.866Z,7.05
2022-07-28T21:32:02.236Z,3.35
2022-07-28T21:34:34.562Z,2.38
2022-07-28T21:37:03.122Z,2.33
2022-07-28T21:39:31.742Z,2.30
2022-07-28T21:42:00.481Z,3.75
2022-07-28T21:44:34.355Z,2.83
2022-07-28T21:47:04.039Z,1.60
2022-07-28T21:49:32.539Z,4.07
2022-07-28T21:52:01.094Z,3.22
2022-07-28T21:54:29.495Z,2.10
2022-07-28T21:56:57.979Z,2.85
2022-07-28T21:59:26.206Z,3.83
2022-07-28T22:01:54.575Z,3.75
2022-07-28T22:04:24.237Z,3.33
2022-07-28T22:06:54.260Z,2.47
2022-07-28T22:09:22.702Z,2.75
2022-07-28T22:11:50.978Z,4.05
2022-07-28T22:14:19.443Z,3.28
2022-07-28T22:16:48.068Z,3.92
2022-07-28T22:19:16.390Z,1.73
2022-07-28T22:21:45.992Z,1.60
2022-07-28T22:24:16.718Z,1.40
2022-07-28T22:26:45.308Z,4.60
2022-07-28T22:29:13.582Z,1.65
2022-07-28T22:31:41.989Z,6.47
2022-07-28T22:34:10.447Z,4.35
2022-07-28T22:36:38.724Z,1.60
2022-07-28T22:39:08.611Z,1.75
2022-07-28T22:41:36.924Z,3.85
2022-07-28T22:44:05.768Z,2.40
2022-07-28T22:46:35.252Z,4.60
2022-07-28T22:49:03.543Z,1.63
2022-07-28T22:51:31.789Z,1.55
2022-07-28T22:54:00.759Z,1.90
2022-07-28T22:56:34.876Z,1.40
2022-07-28T22:59:06.680Z,1.55
2022-07-28T23:01:35.509Z,1.55
2022-07-28T23:04:05.222Z,2.78
2022-07-28T23:06:38.156Z,3.50
2022-07-28T23:09:07.056Z,3.20
2022-07-28T23:11:37.214Z,1.80
2022-07-28T23:14:06.094Z,2.88
2022-07-28T23:16:34.860Z,1.73
2022-07-28T23:19:03.643Z,2.70
2022-07-28T23:21:32.466Z,2.97
2022-07-28T23:24:02.292Z,1.35
2022-07-28T23:26:31.118Z,3.22
2022-07-28T23:29:01.314Z,3.40
2022-07-28T23:31:30.187Z,1.48
2022-07-28T23:33:58.963Z,1.92
2022-07-28T23:36:28.266Z,2.55
2022-07-28T23:38:57.567Z,2.97
2022-07-28T23:41:27.163Z,3.17
2022-07-28T23:43:55.977Z,2.72
2022-07-28T23:46:26.512Z,2.83
2022-07-28T23:48:55.442Z,3.25
2022-07-28T23:51:32.085Z,2.78
2022-07-28T23:54:14.571Z,4.80
2022-07-28T23:56:43.995Z,4.13
2022-07-28T23:59:14.258Z,3.40
